createdAt,value
2023-04-19T00:01:35.951Z,102053.38
2023-04-19T00:04:04.647Z,102058.88
2023-04-19T00:06:33.701Z,102066.19
2023-04-19T00:09:03.925Z,102067.34
2023-04-19T00:11:34.277Z,102058.66
2023-04-19T00:14:03.038Z,102055.97
2023-04-19T00:16:33.919Z,102052.44
2023-04-19T00:19:02.592Z,102065.72
2023-04-19T00:21:31.561Z,102062.97
2023-04-19T00:24:00.102Z,102055.66
2023-04-19T00:26:30.646Z,102051.06
2023-04-19T00:28:58.900Z,102050.94
2023-04-19T00:31:28.274Z,102046.22
2023-04-19T00:33:58.031Z,102045.13
2023-04-19T00:36:26.778Z,102037.94
2023-04-19T00:38:54.939Z,102034.50
2023-04-19T00:41:23.827Z,102029.16
2023-04-19T00:43:54.478Z,102032.03
2023-04-19T00:46:26.560Z,102032.16
2023-04-19T00:48:57.165Z,102032.47
2023-04-19T00:51:53.938Z,102017.75
2023-04-19T00:54:40.206Z,102015.31
2023-04-19T00:57:09.665Z,102015.94
2023-04-19T00:59:42.557Z,102011.00
2023-04-19T01:02:12.158Z,102011.38
2023-04-19T01:04:40.511Z,102013.53
2023-04-19T01:07:10.779Z,102009.38
2023-04-19T01:09:43.035Z,101997.22
2023-04-19T01:12:12.266Z,102009.88
2023-04-19T01:14:42.428Z,101998.72
2023-04-19T01:17:11.086Z,101995.28
2023-04-19T01:19:39.903Z,101988.63
2023-04-19T01:22:21.053Z,101988.81
2023-04-19T01:24:53.029Z,101994.63
2023-04-19T01:27:23.049Z,102001.13
2023-04-19T01:30:06.895Z,101991.81
2023-04-19T01:32:35.499Z,101996.63
2023-04-19T01:35:04.809Z,101989.94
2023-04-19T01:37:44.916Z,101982.09
2023-04-19T01:40:17.465Z,101987.66
2023-04-19T01:42:46.401Z,101987.13
2023-04-19T01:45:14.555Z,101983.78
2023-04-19T01:47:42.874Z,101974.09
2023-04-19T01:50:12.484Z,101980.75
2023-04-19T01:52:40.750Z,101976.47
2023-04-19T01:55:10.879Z,101978.47
2023-04-19T01:57:48.356Z,101976.09
2023-04-19T02:00:19.378Z,101972.56
2023-04-19T02:02:58.984Z,101980.88
2023-04-19T02:11:38.292Z,101971.19
2023-04-19T02:14:09.046Z,101974.06
2023-04-19T02:16:38.779Z,101981.19
2023-04-19T02:19:07.064Z,101978.81
2023-04-19T02:21:36.608Z,101977.28
2023-04-19T02:24:05.065Z,101973.19
2023-04-19T02:26:33.918Z,101974.16
2023-04-19T02:29:02.668Z,101968.06
2023-04-19T02:31:33.759Z,101965.44
2023-04-19T02:34:02.144Z,101951.44
2023-04-19T02:36:31.249Z,101965.66
2023-04-19T02:39:00.331Z,101962.13
2023-04-19T02:41:28.825Z,101958.59
2023-04-19T02:43:57.674Z,101958.59
2023-04-19T02:46:26.004Z,101953.25
2023-04-19T02:48:56.579Z,101952.19
2023-04-19T02:51:24.985Z,101954.97
2023-04-19T02:53:53.094Z,101947.00
2023-04-19T02:56:21.990Z,101943.28
2023-04-19T02:58:50.514Z,101947.69
2023-04-19T03:01:20.009Z,101944.03
2023-04-19T03:03:48.619Z,101935.09
2023-04-19T03:06:19.830Z,101941.19
2023-04-19T03:08:48.076Z,101930.59
2023-04-19T03:11:17.850Z,101926.94
2023-04-19T03:13:46.433Z,101915.38
2023-04-19T03:16:14.621Z,101921.59
2023-04-19T03:18:43.075Z,101918.06
2023-04-19T03:21:11.416Z,101917.09
2023-04-19T03:23:41.415Z,101914.25
2023-04-19T03:26:09.660Z,101924.72
2023-04-19T03:28:38.453Z,101921.66
2023-04-19T03:31:06.740Z,101920.50
2023-04-19T03:33:34.756Z,101917.53
2023-04-19T03:36:02.858Z,101922.41
2023-04-19T03:38:31.361Z,101922.00
2023-04-19T03:41:03.805Z,101911.09
2023-04-19T03:43:32.084Z,101914.22
2023-04-19T03:46:00.248Z,101908.53
2023-04-19T03:48:28.430Z,101904.72
2023-04-19T03:50:56.498Z,101904.47
2023-04-19T03:53:24.495Z,101895.28
2023-04-19T03:55:53.152Z,101897.03
2023-04-19T03:58:23.530Z,101887.16
2023-04-19T04:00:52.094Z,101885.03
2023-04-19T04:03:20.580Z,101885.88
2023-04-19T04:05:48.679Z,101890.16
2023-04-19T04:08:16.737Z,101887.41
2023-04-19T04:10:44.758Z,101893.50
2023-04-19T04:13:12.726Z,101888.03
2023-04-19T04:15:42.461Z,101887.16
2023-04-19T04:18:12.135Z,101885.25
2023-04-19T04:20:40.484Z,101890.50
2023-04-19T04:23:11.290Z,101900.25
2023-04-19T04:25:39.365Z,101898.44
2023-04-19T04:28:10.235Z,101899.94
2023-04-19T04:30:38.652Z,101900.72
2023-04-19T04:33:08.793Z,101900.47
2023-04-19T04:35:36.992Z,101898.56
2023-04-19T04:38:17.506Z,101892.22
2023-04-19T04:40:53.759Z,101892.78
2023-04-19T04:43:22.895Z,101885.72
2023-04-19T04:45:51.454Z,101894.47
2023-04-19T04:48:22.705Z,101885.47
2023-04-19T04:50:50.900Z,101885.47
2023-04-19T04:53:19.185Z,101883.56
2023-04-19T04:55:47.679Z,101896.72
2023-04-19T04:58:16.649Z,101902.88
2023-04-19T05:00:45.495Z,101905.53
2023-04-19T05:03:14.129Z,101892.22
2023-04-19T05:05:45.242Z,101895.78
2023-04-19T05:08:13.639Z,101892.13
2023-04-19T05:10:41.829Z,101893.09
2023-04-19T05:13:10.221Z,101895.56
2023-04-19T05:15:38.298Z,101898.13
2023-04-19T05:18:07.272Z,101892.88
2023-04-19T05:20:35.753Z,101891.91
2023-04-19T05:23:05.944Z,101895.56
2023-04-19T05:25:34.134Z,101900.06
2023-04-19T05:28:03.893Z,101895.56
2023-04-19T05:30:31.992Z,101899.88
2023-04-19T05:33:00.525Z,101903.16
2023-04-19T05:35:28.710Z,101892.97
2023-04-19T05:37:57.218Z,101895.44
2023-04-19T05:40:26.965Z,101893.41
2023-04-19T05:42:58.042Z,101903.06
2023-04-19T05:45:27.117Z,101894.94
2023-04-19T05:47:55.655Z,101895.13
2023-04-19T05:50:23.761Z,101900.38
2023-04-19T05:52:51.909Z,101902.13
2023-04-19T05:55:20.243Z,101917.22
2023-04-19T05:57:50.970Z,101913.56
2023-04-19T06:00:19.821Z,101915.94
2023-04-19T06:02:48.206Z,101922.69
2023-04-19T06:05:16.786Z,101909.09
2023-04-19T06:07:54.527Z,101910.59
2023-04-19T06:10:25.853Z,101911.97
2023-04-19T06:12:58.427Z,101902.84
2023-04-19T06:15:27.767Z,101908.00
2023-04-19T06:17:57.524Z,101911.41
2023-04-19T06:20:27.585Z,101902.41
2023-04-19T06:22:55.599Z,101904.13
2023-04-19T06:25:24.190Z,101911.22
2023-04-19T06:27:52.533Z,101905.31
2023-04-19T06:30:22.108Z,101898.13
2023-04-19T06:32:50.296Z,101913.44
2023-04-19T06:35:19.627Z,101911.88
2023-04-19T06:37:47.723Z,101908.66
2023-04-19T06:40:15.818Z,101905.25
2023-04-19T06:42:43.999Z,101901.66
2023-04-19T06:45:13.184Z,101900.94
2023-04-19T06:47:43.112Z,101903.75
2023-04-19T06:50:13.819Z,101889.56
2023-04-19T06:52:42.224Z,101886.56
2023-04-19T06:55:11.294Z,101875.72
2023-04-19T06:57:39.747Z,101893.09
2023-04-19T07:00:10.586Z,101893.63
2023-04-19T07:02:39.183Z,101903.03
2023-04-19T07:05:12.975Z,101901.19
2023-04-19T07:07:41.477Z,101906.41
2023-04-19T07:10:11.345Z,101899.28
2023-04-19T07:12:48.772Z,101893.00
2023-04-19T07:15:17.564Z,101906.00
2023-04-19T07:17:47.060Z,101893.03
2023-04-19T07:20:17.969Z,101892.63
2023-04-19T07:22:46.580Z,101898.19
2023-04-19T07:25:16.564Z,101896.38
2023-04-19T07:27:45.178Z,101896.00
2023-04-19T07:30:13.556Z,101886.72
2023-04-19T07:32:42.063Z,101898.97
2023-04-19T07:35:10.954Z,101903.84
2023-04-19T07:37:40.619Z,101902.41
2023-04-19T07:40:10.215Z,101912.44
2023-04-19T07:42:40.875Z,101924.03
2023-04-19T07:45:11.512Z,101930.91
2023-04-19T07:47:39.838Z,101930.06
2023-04-19T07:50:10.731Z,101933.22
2023-04-19T07:52:40.233Z,101924.88
2023-04-19T07:55:09.601Z,101918.50
2023-04-19T07:57:37.873Z,101908.19
2023-04-19T08:00:07.099Z,101912.44
2023-04-19T08:02:35.488Z,101910.53
2023-04-19T08:05:04.140Z,101922.78
2023-04-19T08:07:33.033Z,101916.25
2023-04-19T08:10:02.695Z,101915.88
2023-04-19T08:12:39.295Z,101924.53
2023-04-19T08:15:32.931Z,101926.66
2023-04-19T08:17:59.900Z,101919.91
2023-04-19T08:20:29.188Z,101918.84
2023-04-19T08:23:00.512Z,101911.66
2023-04-19T08:25:32.164Z,101915.59
2023-04-19T08:28:00.334Z,101923.78
2023-04-19T08:30:37.653Z,101923.41
2023-04-19T08:33:06.951Z,101910.19
2023-04-19T08:35:36.931Z,101916.44
2023-04-19T08:38:08.592Z,101912.97
2023-04-19T08:40:49.378Z,101909.63
2023-04-19T08:43:19.380Z,101917.56
2023-04-19T08:45:49.561Z,101910.94
2023-04-19T08:48:20.133Z,101899.63
2023-04-19T08:51:04.175Z,101901.78
2023-04-19T08:53:35.027Z,101895.44
2023-04-19T08:56:21.095Z,101910.00
2023-04-19T08:59:19.315Z,101917.63
2023-04-19T09:01:48.695Z,101928.59
2023-04-19T09:04:35.456Z,101925.69
2023-04-19T09:07:05.146Z,101909.44
2023-04-19T09:09:42.869Z,101906.38
2023-04-19T09:12:19.438Z,101906.38
2023-04-19T09:17:19.954Z,101884.81
2023-04-19T09:19:49.253Z,101884.25
2023-04-19T09:22:18.066Z,101875.56
2023-04-19T09:27:27.356Z,101863.56
2023-04-19T09:29:56.138Z,101863.38
2023-04-19T09:32:25.271Z,101862.63
2023-04-19T09:34:56.038Z,101849.16
2023-04-19T09:39:56.302Z,101852.28
2023-04-19T09:42:47.358Z,101861.25
2023-04-19T09:45:29.236Z,101858.97
2023-04-19T09:48:07.725Z,101862.97
2023-04-19T09:50:50.315Z,101870.88
2023-04-19T09:53:24.930Z,101861.19
2023-04-19T09:56:01.539Z,101867.28
2023-04-19T09:58:42.508Z,101870.16
2023-04-19T10:01:20.307Z,101878.75
2023-04-19T10:03:51.515Z,101869.63
2023-04-19T10:08:56.000Z,101863.38
2023-04-19T10:11:27.019Z,101861.19
2023-04-19T10:14:01.248Z,101861.00
2023-04-19T10:16:32.750Z,101858.91
2023-04-19T10:19:02.433Z,101856.91
2023-04-19T10:21:31.097Z,101852.97
2023-04-19T10:24:00.160Z,101859.44
2023-04-19T10:26:28.547Z,101855.31
2023-04-19T10:28:58.861Z,101838.88
2023-04-19T10:31:28.026Z,101842.69
2023-04-19T10:33:57.832Z,101845.78
2023-04-19T10:36:29.974Z,101841.22
2023-04-19T10:38:58.097Z,101845.31
2023-04-19T10:41:59.623Z,101852.38
2023-04-19T10:44:29.937Z,101849.84
2023-04-19T10:46:59.940Z,101842.22
2023-04-19T10:49:30.050Z,101838.03
2023-04-19T10:52:00.476Z,101834.09
2023-04-19T10:54:34.495Z,101823.88
2023-04-19T10:57:05.694Z,101817.34
2023-04-19T10:59:35.923Z,101816.09
2023-04-19T11:02:06.741Z,101815.81
2023-04-19T11:05:14.215Z,101813.50
2023-04-19T11:07:43.897Z,101815.06
2023-04-19T11:10:12.976Z,101818.47
2023-04-19T11:12:45.275Z,101815.06
2023-04-19T11:15:14.769Z,101824.16
2023-04-19T11:17:43.043Z,101803.97
2023-04-19T11:20:13.601Z,101814.50
2023-04-19T11:22:44.099Z,101815.06
2023-04-19T11:25:14.247Z,101815.75
2023-04-19T11:27:44.505Z,101810.88
2023-04-19T11:30:17.504Z,101803.28
2023-04-19T11:32:52.896Z,101805.13
2023-04-19T11:35:23.185Z,101810.41
2023-04-19T11:37:53.420Z,101803.66
2023-04-19T11:40:23.846Z,101806.38
2023-04-19T11:42:56.519Z,101800.94
2023-04-19T11:45:35.528Z,101810.66
2023-04-19T11:48:09.755Z,101806.47
2023-04-19T11:50:39.839Z,101806.22
2023-04-19T11:53:14.090Z,101797.47
2023-04-19T11:55:47.782Z,101807.59
2023-04-19T11:58:33.923Z,101809.03
2023-04-19T12:01:10.169Z,101799.19
2023-04-19T12:03:46.460Z,101790.31
2023-04-19T12:06:16.373Z,101791.03
2023-04-19T12:08:47.517Z,101791.28
2023-04-19T12:13:44.596Z,101794.06
2023-04-19T12:16:15.174Z,101791.56
2023-04-19T12:18:45.482Z,101792.28
2023-04-19T12:21:26.479Z,101785.53
2023-04-19T12:23:59.125Z,101786.41
2023-04-19T12:26:28.677Z,101781.84
2023-04-19T12:28:57.665Z,101773.28
2023-04-19T12:31:27.922Z,101774.50
2023-04-19T12:33:56.389Z,101776.19
2023-04-19T12:36:26.586Z,101778.28
2023-04-19T12:38:54.866Z,101768.00
2023-04-19T12:41:23.099Z,101765.84
2023-04-19T12:43:51.501Z,101770.34
2023-04-19T12:46:20.201Z,101762.25
2023-04-19T12:48:50.087Z,101760.59
2023-04-19T12:51:18.172Z,101747.06
2023-04-19T12:53:49.684Z,101768.50
2023-04-19T12:56:19.873Z,101764.78
2023-04-19T12:58:48.405Z,101761.38
2023-04-19T13:01:19.939Z,101760.69
2023-04-19T13:03:50.376Z,101774.97
2023-04-19T13:06:19.080Z,101774.25
2023-04-19T13:08:47.915Z,101768.81
2023-04-19T13:11:17.887Z,101775.25
2023-04-19T13:13:46.600Z,101762.66
2023-04-19T13:16:20.104Z,101760.34
2023-04-19T13:18:51.441Z,101762.03
2023-04-19T13:21:23.431Z,101763.25
2023-04-19T13:23:52.129Z,101756.72
2023-04-19T13:26:20.698Z,101763.97
2023-04-19T13:28:48.921Z,101756.19
2023-04-19T13:31:18.109Z,101747.06
2023-04-19T13:33:46.995Z,101748.31
2023-04-19T13:36:19.966Z,101743.16
2023-04-19T13:38:50.063Z,101741.47
2023-04-19T13:41:18.923Z,101746.50
2023-04-19T13:43:48.713Z,101741.53
2023-04-19T13:46:17.543Z,101741.50
2023-04-19T13:48:46.364Z,101731.13
2023-04-19T13:51:15.085Z,101735.53
2023-04-19T13:53:50.225Z,101726.38
2023-04-19T13:56:18.675Z,101719.38
2023-04-19T13:58:47.196Z,101723.09
2023-04-19T14:01:16.948Z,101729.84
2023-04-19T14:03:46.746Z,101722.38
2023-04-19T14:06:15.204Z,101722.13
2023-04-19T14:08:49.629Z,101712.94
2023-04-19T14:11:21.864Z,101711.75
2023-04-19T14:13:50.648Z,101715.03
2023-04-19T14:16:19.203Z,101707.63
2023-04-19T14:18:47.712Z,101707.03
2023-04-19T14:21:16.320Z,101707.28
2023-04-19T14:23:46.105Z,101698.34
2023-04-19T14:26:14.330Z,101703.81
2023-04-19T14:28:45.407Z,101701.34
2023-04-19T14:31:17.606Z,101700.91
2023-04-19T14:33:46.552Z,101698.06
2023-04-19T14:36:14.776Z,101699.78
2023-04-19T14:38:43.209Z,101690.25
2023-04-19T14:41:16.671Z,101694.66
2023-04-19T14:43:46.521Z,101692.88
2023-04-19T14:46:15.428Z,101693.78
2023-04-19T14:48:44.342Z,101697.78
2023-04-19T14:51:12.829Z,101694.44
2023-04-19T14:53:41.496Z,101688.78
2023-04-19T14:56:10.085Z,101693.50
2023-04-19T14:58:40.091Z,101701.81
2023-04-19T15:01:15.354Z,101690.13
2023-04-19T15:03:48.893Z,101672.25
2023-04-19T15:06:20.887Z,101683.66
2023-04-19T15:11:41.204Z,101676.00
2023-04-19T15:14:13.349Z,101685.81
2023-04-19T15:19:30.003Z,101681.56
2023-04-19T15:22:09.713Z,101685.63
2023-04-19T15:24:38.153Z,101682.38
2023-04-19T15:27:07.313Z,101688.16
2023-04-19T15:29:42.274Z,101681.50
2023-04-19T15:32:25.845Z,101682.31
2023-04-19T15:34:54.564Z,101685.41
2023-04-19T15:37:32.206Z,101686.06
2023-04-19T15:40:09.798Z,101682.19
2023-04-19T15:42:38.199Z,101679.00
2023-04-19T15:45:12.667Z,101677.72
2023-04-19T15:47:55.331Z,101672.06
2023-04-19T15:53:37.093Z,101672.69
2023-04-19T15:58:49.323Z,101676.84
2023-04-19T16:07:05.413Z,101671.16
2023-04-19T16:15:18.036Z,101672.09
2023-04-19T16:21:30.274Z,101666.22
2023-04-19T16:24:02.598Z,101666.25
2023-04-19T16:29:21.039Z,101678.19
2023-04-19T16:34:25.713Z,101680.78
2023-04-19T16:36:56.042Z,101673.94
2023-04-19T16:39:24.406Z,101674.06
2023-04-19T16:41:52.968Z,101666.59
2023-04-19T16:44:21.029Z,101679.06
2023-04-19T16:47:12.002Z,101669.91
2023-04-19T16:49:41.894Z,101673.81
2023-04-19T16:59:03.666Z,101667.69
2023-04-19T18:23:40.078Z,101631.81
2023-04-19T19:23:18.224Z,101649.69
2023-04-19T19:26:37.130Z,101649.78
2023-04-19T19:38:57.805Z,101657.47
2023-04-19T19:41:56.308Z,101663.72
2023-04-19T19:44:15.888Z,101659.91
2023-04-19T19:46:58.706Z,101660.34
2023-04-19T19:49:42.012Z,101668.16
2023-04-19T19:59:30.159Z,101663.44
2023-04-19T20:02:26.615Z,101664.88
2023-04-19T20:11:08.082Z,101671.97
2023-04-19T20:13:37.182Z,101676.63
2023-04-19T20:19:40.855Z,101689.25
2023-04-19T20:45:19.200Z,101684.91
2023-04-19T20:50:23.170Z,101687.72
2023-04-19T21:20:23.581Z,101709.75
2023-04-19T21:22:55.651Z,101712.25
2023-04-19T21:25:24.246Z,101708.00
2023-04-19T21:27:55.090Z,101709.94
2023-04-19T22:35:02.707Z,101710.00
2023-04-19T23:44:38.384Z,101716.00
2023-04-19T23:47:23.505Z,101711.75
2023-04-19T23:52:43.021Z,101714.63
2023-04-19T23:58:21.622Z,101703.41
